Observation data for Silverton on 12/07/2018      Previous  Date       Current Mesonet Observations  Soil Data  Daily Summary Page  Observations in Plain Language
KSVS 070600Z 06006KT 01/M05 A3031 RMK A01 T00051050  RH  067%=      5-min Rain = 0
KSVS 070605Z 05006KT 01/M05 A3032 RMK A01 T00051049  RH  067%=      5-min Rain = 0
KSVS 070610Z 05005KT 01/M05 A3032 RMK A01 T00051049  RH  068%=      5-min Rain = 0
KSVS 070615Z 05005KT 00/M05 A3031 RMK A01 T00041048  RH  068%=      5-min Rain = 0
KSVS 070620Z 05005KT 00/M05 A3031 RMK A01 T00041048  RH  069%=      5-min Rain = 0
KSVS 070625Z 05005KT 00/M05 A3031 RMK A01 T00041047  RH  069%=      5-min Rain = 0
KSVS 070630Z 05004KT 00/M05 A303 RMK A01 T00031047  RH  069%=      5-min Rain = 0
KSVS 070635Z 05005KT 00/M05 A303 RMK A01 T00031046  RH  070%=      5-min Rain = 0
KSVS 070640Z 05005KT 00/M05 A303 RMK A01 T00031047  RH  070%=      5-min Rain = 0
KSVS 070645Z 05005KT 00/M05 A303 RMK A01 T00031046  RH  070%=      5-min Rain = 0
KSVS 070650Z 06004KT 00/M05 A303 RMK A01 T00021045  RH  071%=      5-min Rain = 0
KSVS 070655Z 07005KT 00/M05 A303 RMK A01 T00021045  RH  071%=      5-min Rain = 0
KSVS 070700Z 07004KT 00/M05 A303 RMK A01 T00021046  RH  071%=      5-min Rain = 0
KSVS 070705Z 06005KT 00/M05 A303 RMK A01 T00021046  RH  071%=      5-min Rain = 0
KSVS 070710Z 06005KT 00/M05 A303 RMK A01 T00011046  RH  071%=      5-min Rain = 0
KSVS 070715Z 04006KT 00/M05 A303 RMK A01 T00011046  RH  071%=      5-min Rain = 0
KSVS 070720Z 05007KT M00/M05 A303 RMK A01 T10011048  RH  070%=      5-min Rain = 0
KSVS 070725Z 05007KT M00/M05 A303 RMK A01 T10021048  RH  071%=      5-min Rain = 0
KSVS 070730Z 05005KT M00/M05 A303 RMK A01 T10021048  RH  072%=      5-min Rain = 0
KSVS 070735Z 04006KT M00/M05 A303 RMK A01 T10031047  RH  072%=      5-min Rain = 0
KSVS 070740Z 05006KT M00/M05 A3029 RMK A01 T10031047  RH  072%=      5-min Rain = 0
KSVS 070745Z 06004KT M00/M05 A3031 RMK A01 T10021048  RH  072%=      5-min Rain = 0
KSVS 070750Z 07003KT M00/M05 A3031 RMK A01 T10011047  RH  072%=      5-min Rain = 0
KSVS 070755Z 07004KT M00/M05 A3031 RMK A01 T10011048  RH  071%=      5-min Rain = 0
KSVS 070800Z 06004KT M00/M05 A303 RMK A01 T10011048  RH  071%=      5-min Rain = 0
KSVS 070805Z 07004KT M00/M05 A303 RMK A01 T10011048  RH  071%=      5-min Rain = 0
KSVS 070810Z 07004KT M00/M05 A3031 RMK A01 T10011048  RH  071%=      5-min Rain = 0
KSVS 070815Z 06003KT 00/05 A3031 RMK A01 T00-00-48  RH  071%=      5-min Rain = 0
KSVS 070820Z 06004KT 00/05 A3031 RMK A01 T00-00-47  RH  071%=      5-min Rain = 0
KSVS 070825Z 07004KT 00/05 A3031 RMK A01 T00-00-47  RH  071%=      5-min Rain = 0
KSVS 070830Z 07004KT M00/M05 A3031 RMK A01 T10011048  RH  071%=      5-min Rain = 0
KSVS 070835Z 07004KT M00/M05 A3031 RMK A01 T10011048  RH  071%=      5-min Rain = 0
KSVS 070840Z 06004KT M00/M05 A3031 RMK A01 T10011049  RH  070%=      5-min Rain = 0
KSVS 070845Z 06003KT M00/M05 A3031 RMK A01 T10011049  RH  070%=      5-min Rain = 0
KSVS 070850Z 07003KT M00/M05 A3032 RMK A01 T10011048  RH  071%=      5-min Rain = 0
KSVS 070855Z 07002KT M00/M05 A3032 RMK A01 T10011049  RH  070%=      5-min Rain = 0
KSVS 070900Z 06002KT M00/M05 A3032 RMK A01 T10011048  RH  071%=      5-min Rain = 0
KSVS 070905Z 06001KT M00/M05 A3032 RMK A01 T10011048  RH  071%=      5-min Rain = 0
KSVS 070910Z 04002KT M00/M05 A3032 RMK A01 T10011049  RH  070%=      5-min Rain = 0
KSVS 070915Z 03002KT M00/M05 A3032 RMK A01 T10011049  RH  070%=      5-min Rain = 0
KSVS 070920Z 04003KT M00/M05 A3031 RMK A01 T10011049  RH  071%=      5-min Rain = 0
KSVS 070925Z 06003KT M00/M05 A3031 RMK A01 T10021048  RH  071%=      5-min Rain = 0
KSVS 070930Z 06002KT M00/M05 A3031 RMK A01 T10011049  RH  071%=      5-min Rain = 0
KSVS 070935Z 05002KT M00/M05 A3031 RMK A01 T10021049  RH  071%=      5-min Rain = 0
KSVS 070940Z 09000KT M00/M05 A3032 RMK A01 T10021048  RH  071%=      5-min Rain = 0
KSVS 070945Z 09000KT M00/M05 A3032 RMK A01 T10011049  RH  071%=      5-min Rain = 0
KSVS 070950Z 33000KT M00/M05 A3032 RMK A01 T10021047  RH  071%=      5-min Rain = 0
KSVS 070955Z 32000KT M00/M05 A3031 RMK A01 T10021047  RH  072%=      5-min Rain = 0
KSVS 071000Z 28001KT M00/M05 A3031 RMK A01 T10021045  RH  073%=      5-min Rain = 0
KSVS 071005Z 33002KT M00/M04 A3031 RMK A01 T10021044  RH  073%=      5-min Rain = 0
KSVS 071010Z 36002KT M00/M05 A303 RMK A01 T10021045  RH  073%=      5-min Rain = 0
KSVS 071015Z 03004KT M00/M04 A3029 RMK A01 T10021044  RH  074%=      5-min Rain = 0
KSVS 071020Z 04004KT M00/M05 A3028 RMK A01 T10031045  RH  073%=      5-min Rain = 0
KSVS 071025Z 03005KT M00/M05 A3027 RMK A01 T10021045  RH  073%=      5-min Rain = 0
KSVS 071030Z 03004KT M00/M05 A3027 RMK A01 T10021046  RH  073%=      5-min Rain = 0
KSVS 071035Z 01004KT M00/M05 A3028 RMK A01 T10021046  RH  072%=      5-min Rain = 0
KSVS 071040Z 04004KT M00/M05 A3027 RMK A01 T10021048  RH  071%=      5-min Rain = 0
KSVS 071045Z 05006KT M00/M05 A3027 RMK A01 T10031048  RH  072%=      5-min Rain = 0
KSVS 071050Z 04007KT M00/M05 A3026 RMK A01 T10041047  RH  073%=      5-min Rain = 0
KSVS 071055Z 04006KT M01/M05 A3027 RMK A01 T10051047  RH  073%=      5-min Rain = 0
KSVS 071100Z 04005KT M01/M05 A3027 RMK A01 T10051046  RH  074%=      5-min Rain = 0
KSVS 071105Z 04004KT M01/M05 A3028 RMK A01 T10051046  RH  074%=      5-min Rain = 0
KSVS 071110Z 05004KT M01/M05 A3029 RMK A01 T10051046  RH  074%=      5-min Rain = 0
KSVS 071115Z 06005KT M01/M05 A3028 RMK A01 T10051046  RH  074%=      5-min Rain = 0
KSVS 071120Z 06005KT M01/M05 A3028 RMK A01 T10061047  RH  074%=      5-min Rain = 0
KSVS 071125Z 06006KT M01/M05 A3028 RMK A01 T10061047  RH  074%=      5-min Rain = 0
KSVS 071130Z 07006KT M01/M05 A3028 RMK A01 T10061046  RH  074%=      5-min Rain = 0
KSVS 071135Z 07005KT M01/M05 A3029 RMK A01 T10061046  RH  075%=      5-min Rain = 0
KSVS 071140Z 07006KT M01/M05 A3028 RMK A01 T10061046  RH  075%=      5-min Rain = 0
KSVS 071145Z 06006KT M01/M05 A3028 RMK A01 T10061045  RH  075%=      5-min Rain = 0
KSVS 071150Z 06005KT M01/M04 A3028 RMK A01 T10061044  RH  076%=      5-min Rain = 0
KSVS 071155Z 08006KT M01/M04 A3028 RMK A01 T10071044  RH  076%=      5-min Rain = 0
KSVS 071200Z 08006KT M01/M04 A3028 RMK A01 T10071044  RH  076%=      5-min Rain = 0
KSVS 071205Z 07005KT M01/M04 A3028 RMK A01 T10071042  RH  077%=      5-min Rain = 0
KSVS 071210Z 07007KT M01/M04 A3028 RMK A01 T10071043  RH  077%=      5-min Rain = 0
KSVS 071215Z 06007KT M01/M04 A3028 RMK A01 T10081043  RH  078%=      5-min Rain = 0
KSVS 071220Z 07006KT M01/M04 A3028 RMK A01 T10081042  RH  078%=      5-min Rain = 0
KSVS 071225Z 06006KT M01/M04 A3028 RMK A01 T10081042  RH  079%=      5-min Rain = 0
KSVS 071230Z 06005KT M01/M04 A3029 RMK A01 T10091041  RH  079%=      5-min Rain = 0
KSVS 071235Z 06005KT M01/M04 A3029 RMK A01 T10091041  RH  079%=      5-min Rain = 0
KSVS 071240Z 08006KT M01/M04 A3029 RMK A01 T10091041  RH  079%=      5-min Rain = 0
KSVS 071245Z 09006KT M01/M04 A3029 RMK A01 T10091040  RH  079%=      5-min Rain = 0
KSVS 071250Z 09006KT M01/M04 A3029 RMK A01 T10091040  RH  079%=      5-min Rain = 0
KSVS 071255Z 09006KT M01/M04 A303 RMK A01 T10081040  RH  080%=      5-min Rain = 0
KSVS 071300Z 09006KT M01/M04 A303 RMK A01 T10081040  RH  080%=      5-min Rain = 0
KSVS 071305Z 10005KT M01/M04 A303 RMK A01 T10081040  RH  080%=      5-min Rain = 0
KSVS 071310Z 10004KT M01/M04 A3031 RMK A01 T10081040  RH  080%=      5-min Rain = 0
KSVS 071315Z 11004KT M01/M04 A3031 RMK A01 T10081040  RH  080%=      5-min Rain = 0
KSVS 071320Z 12004KT M01/M04 A3031 RMK A01 T10091039  RH  080%=      5-min Rain = 0
KSVS 071325Z 11004KT M01/M04 A3032 RMK A01 T10091039  RH  081%=      5-min Rain = 0
KSVS 071330Z 10004KT M01/M04 A3032 RMK A01 T10091039  RH  081%=      5-min Rain = 0
KSVS 071335Z 09005KT M01/M04 A3031 RMK A01 T10091038  RH  081%=      5-min Rain = 0
KSVS 071340Z 09007KT M01/M04 A3031 RMK A01 T10091038  RH  081%=      5-min Rain = 0
KSVS 071345Z 09007KT M01/M04 A303 RMK A01 T10091038  RH  082%=      5-min Rain = 0
KSVS 071350Z 09008KT M01/M04 A303 RMK A01 T10101037  RH  082%=      5-min Rain = 0
KSVS 071355Z 08008KT M01/M04 A303 RMK A01 T10101036  RH  083%=      5-min Rain = 0
KSVS 071400Z 08008KT M01/M04 A303 RMK A01 T10101035  RH  083%=      5-min Rain = 0
KSVS 071405Z 08008KT M01/M04 A3031 RMK A01 T10101035  RH  084%=      5-min Rain = 0
KSVS 071410Z 07008KT M01/M04 A3031 RMK A01 T10101035  RH  084%=      5-min Rain = 0
KSVS 071415Z 08008KT M01/M03 A3032 RMK A01 T10101033  RH  085%=      5-min Rain = 0
KSVS 071420Z 08006KT M01/M03 A3032 RMK A01 T10111032  RH  086%=      5-min Rain = 0
KSVS 071425Z 08005KT M01/M03 A3033 RMK A01 T10121030  RH  088%=      5-min Rain = 0
KSVS 071430Z 09007KT M01/M03 A3033 RMK A01 T10121028  RH  090%=      5-min Rain = 0
KSVS 071435Z 08006KT M01/M03 A3033 RMK A01 T10131028  RH  090%=      5-min Rain = 0
KSVS 071440Z 08006KT M01/M03 A3034 RMK A01 T10131027  RH  091%=      5-min Rain = 0
KSVS 071445Z 08006KT M01/M03 A3034 RMK A01 T10121026  RH  091%=      5-min Rain = 0
KSVS 071450Z 08005KT M01/M03 A3034 RMK A01 T10131027  RH  091%=      5-min Rain = 0
KSVS 071455Z 08004KT M01/M03 A3035 RMK A01 T10131026  RH  091%=      5-min Rain = 0
KSVS 071500Z 08003KT M01/M03 A3035 RMK A01 T10131027  RH  091%=      5-min Rain = 0
KSVS 071505Z 08003KT M01/M03 A3035 RMK A01 T10131026  RH  091%=      5-min Rain = 0.01
KSVS 071510Z 08002KT M01/M03 A3036 RMK A01 T10131026  RH  091%=      5-min Rain = 0.01
KSVS 071515Z 06003KT M01/M03 A3036 RMK A01 T10131026  RH  091%=      5-min Rain = 0.01
KSVS 071520Z 05004KT M01/M03 A3035 RMK A01 T10121025  RH  092%=      5-min Rain = 0.01
KSVS 071525Z 05003KT M01/M02 A3035 RMK A01 T10111024  RH  092%=      5-min Rain = 0.01
KSVS 071530Z 03004KT M01/M02 A3035 RMK A01 T10121024  RH  092%=      5-min Rain = 0.01
KSVS 071535Z 02004KT M01/M02 A3035 RMK A01 T10121024  RH  093%=      5-min Rain = 0
KSVS 071540Z 03004KT M01/M02 A3035 RMK A01 T10121024  RH  093%=      5-min Rain = 0.01
KSVS 071545Z 05004KT M01/M02 A3035 RMK A01 T10121023  RH  093%=      5-min Rain = 0
KSVS 071550Z 04004KT M01/M02 A3035 RMK A01 T10121023  RH  093%=      5-min Rain = 0
KSVS 071555Z 04004KT M01/M02 A3035 RMK A01 T10131023  RH  093%=      5-min Rain = 0
KSVS 071600Z 03005KT M01/M02 A3035 RMK A01 T10121023  RH  093%=      5-min Rain = 0.01
KSVS 071605Z 01005KT M01/M02 A3035 RMK A01 T10121022  RH  093%=      5-min Rain = 0.01
KSVS 071610Z 02006KT M01/M02 A3035 RMK A01 T10121023  RH  093%=      5-min Rain = 0
KSVS 071615Z 03005KT M01/M02 A3035 RMK A01 T10131023  RH  093%=      5-min Rain = 0
KSVS 071620Z 03006KT M01/M02 A3035 RMK A01 T10131024  RH  093%=      5-min Rain = 0
KSVS 071625Z 05005KT M01/M02 A3035 RMK A01 T10131024  RH  093%=      5-min Rain = 0.01
KSVS 071630Z 03006KT M01/M02 A3034 RMK A01 T10131024  RH  093%=      5-min Rain = 0
KSVS 071635Z 05005KT M01/M02 A3034 RMK A01 T10131024  RH  093%=      5-min Rain = 0
KSVS 071640Z 05005KT M01/M02 A3034 RMK A01 T10131024  RH  093%=      5-min Rain = 0
KSVS 071645Z 04005KT M02/M03 A3034 RMK A01 T10151026  RH  093%=      5-min Rain = 0
KSVS 071650Z 04005KT M02/M03 A3034 RMK A01 T10151027  RH  092%=      5-min Rain = 0
KSVS 071655Z 04005KT M02/M03 A3034 RMK A01 T10161028  RH  092%=      5-min Rain = 0
KSVS 071700Z 03006KT M02/M03 A3034 RMK A01 T10161028  RH  092%=      5-min Rain = 0
KSVS 071705Z 03006KT M02/M03 A3034 RMK A01 T10161028  RH  092%=      5-min Rain = 0
KSVS 071710Z 03006KT M02/M03 A3034 RMK A01 T10161029  RH  092%=      5-min Rain = 0
KSVS 071715Z 03007KT M02/M03 A3034 RMK A01 T10171030  RH  091%=      5-min Rain = 0
KSVS 071720Z 04007KT M02/M03 A3033 RMK A01 T10161030  RH  091%=      5-min Rain = 0
KSVS 071725Z 04006KT M02/M03 A3033 RMK A01 T10151027  RH  092%=      5-min Rain = 0
KSVS 071730Z 04006KT M02/M03 A3033 RMK A01 T10151028  RH  091%=      5-min Rain = 0
KSVS 071735Z 04007KT M02/M03 A3033 RMK A01 T10151029  RH  091%=      5-min Rain = 0
KSVS 071740Z 05006KT M02/M03 A3032 RMK A01 T10161029  RH  091%=      5-min Rain = 0
KSVS 071745Z 04005KT M01/M03 A3032 RMK A01 T10141027  RH  091%=      5-min Rain = 0.01
KSVS 071750Z 05005KT M01/M03 A3032 RMK A01 T10131026  RH  092%=      5-min Rain = 0
KSVS 071755Z 05005KT M01/M03 A3032 RMK A01 T10131025  RH  092%=      5-min Rain = 0
KSVS 071800Z 04005KT M01/M03 A3032 RMK A01 T10141026  RH  092%=      5-min Rain = 0
KSVS 071805Z 03005KT M01/M03 A3031 RMK A01 T10131026  RH  092%=      5-min Rain = 0.01
KSVS 071810Z 04005KT M01/M03 A3031 RMK A01 T10121025  RH  092%=      5-min Rain = 0
KSVS 071815Z 03005KT M01/M03 A3031 RMK A01 T10131026  RH  092%=      5-min Rain = 0
KSVS 071820Z 03005KT M01/M03 A303 RMK A01 T10131026  RH  092%=      5-min Rain = 0
KSVS 071825Z 03005KT M01/M02 A303 RMK A01 T10121024  RH  092%=      5-min Rain = 0
KSVS 071830Z 03006KT M01/M03 A303 RMK A01 T10131026  RH  092%=      5-min Rain = 0
KSVS 071835Z 04004KT M01/M03 A3029 RMK A01 T10131026  RH  091%=      5-min Rain = 0
KSVS 071840Z 05004KT M01/M03 A3029 RMK A01 T10131026  RH  092%=      5-min Rain = 0
KSVS 071845Z 04003KT M01/M03 A3029 RMK A01 T10121025  RH  092%=      5-min Rain = 0
KSVS 071850Z 05003KT M01/M03 A3029 RMK A01 T10121025  RH  092%=      5-min Rain = 0
KSVS 071855Z 05003KT M01/M03 A3029 RMK A01 T10131027  RH  091%=      5-min Rain = 0
KSVS 071900Z 05003KT M01/M03 A3029 RMK A01 T10131027  RH  091%=      5-min Rain = 0
KSVS 071905Z 03003KT M01/M03 A3028 RMK A01 T10121026  RH  091%=      5-min Rain = 0.01
KSVS 071910Z 03003KT M01/M03 A3029 RMK A01 T10121026  RH  091%=      5-min Rain = 0.01
KSVS 071915Z 36003KT M01/M03 A3029 RMK A01 T10111025  RH  091%=      5-min Rain = 0
KSVS 071920Z 00002KT M01/M03 A3029 RMK A01 T10121026  RH  091%=      5-min Rain = 0
KSVS 071925Z 01002KT M01/M02 A3028 RMK A01 T10101024  RH  091%=      5-min Rain = 0
KSVS 071930Z 02002KT M01/M02 A3028 RMK A01 T10111024  RH  091%=      5-min Rain = 0
KSVS 071935Z 02002KT M01/M02 A3028 RMK A01 T10101023  RH  091%=      5-min Rain = 0
KSVS 071940Z 03002KT M01/M02 A3028 RMK A01 T10091023  RH  091%=      5-min Rain = 0
KSVS 071945Z 02003KT M01/M02 A3027 RMK A01 T10091023  RH  091%=      5-min Rain = 0
KSVS 071950Z 02003KT M01/M02 A3027 RMK A01 T10091023  RH  091%=      5-min Rain = 0
KSVS 071955Z 00002KT M01/M02 A3027 RMK A01 T10091023  RH  091%=      5-min Rain = 0
KSVS 072000Z 02003KT M01/M02 A3027 RMK A01 T10081022  RH  091%=      5-min Rain = 0
KSVS 072005Z 02003KT M01/M02 A3027 RMK A01 T10081023  RH  090%=      5-min Rain = 0
KSVS 072010Z 01003KT M01/M02 A3027 RMK A01 T10071022  RH  090%=      5-min Rain = 0
KSVS 072015Z 01003KT M01/M02 A3027 RMK A01 T10071022  RH  090%=      5-min Rain = 0
KSVS 072020Z 01002KT M01/M02 A3027 RMK A01 T10071022  RH  090%=      5-min Rain = 0
KSVS 072025Z 01002KT M01/M02 A3027 RMK A01 T10051020  RH  090%=      5-min Rain = 0
KSVS 072030Z 34003KT M01/M02 A3027 RMK A01 T10061021  RH  091%=      5-min Rain = 0
KSVS 072035Z 33003KT M01/M02 A3027 RMK A01 T10061019  RH  091%=      5-min Rain = 0
KSVS 072040Z 32003KT M01/M02 A3028 RMK A01 T10061019  RH  092%=      5-min Rain = 0
KSVS 072045Z 33003KT M01/M02 A3027 RMK A01 T10071019  RH  092%=      5-min Rain = 0
KSVS 072050Z 34003KT M01/M02 A3027 RMK A01 T10061018  RH  092%=      5-min Rain = 0
KSVS 072055Z 34004KT M01/M02 A3027 RMK A01 T10061018  RH  093%=      5-min Rain = 0
KSVS 072100Z 34004KT M01/M02 A3027 RMK A01 T10071018  RH  093%=      5-min Rain = 0
KSVS 072105Z 34004KT M01/M02 A3026 RMK A01 T10071018  RH  093%=      5-min Rain = 0
KSVS 072110Z 35004KT M01/M02 A3026 RMK A01 T10061017  RH  093%=      5-min Rain = 0
KSVS 072115Z 36004KT M01/M02 A3025 RMK A01 T10061016  RH  094%=      5-min Rain = 0
KSVS 072120Z 35005KT M01/M02 A3025 RMK A01 T10061016  RH  094%=      5-min Rain = 0
KSVS 072125Z 35005KT M01/M02 A3025 RMK A01 T10061016  RH  094%=      5-min Rain = 0
KSVS 072130Z 35005KT M01/M02 A3026 RMK A01 T10061016  RH  094%=      5-min Rain = 0
KSVS 072135Z 35005KT M01/M02 A3026 RMK A01 T10071016  RH  094%=      5-min Rain = 0
KSVS 072140Z 35004KT M01/M02 A3026 RMK A01 T10071017  RH  094%=      5-min Rain = 0
KSVS 072145Z 36004KT M01/M02 A3026 RMK A01 T10061017  RH  093%=      5-min Rain = 0
KSVS 072150Z 36004KT M01/M02 A3026 RMK A01 T10071017  RH  093%=      5-min Rain = 0
KSVS 072155Z 00004KT M01/M02 A3026 RMK A01 T10061016  RH  093%=      5-min Rain = 0
KSVS 072200Z 36004KT M01/M02 A3026 RMK A01 T10051016  RH  093%=      5-min Rain = 0
KSVS 072205Z 35005KT M01/M02 A3027 RMK A01 T10051016  RH  093%=      5-min Rain = 0
KSVS 072210Z 00004KT M01/M02 A3027 RMK A01 T10051016  RH  093%=      5-min Rain = 0
KSVS 072215Z 00004KT M01/M02 A3026 RMK A01 T10051016  RH  093%=      5-min Rain = 0
KSVS 072220Z 00003KT M00/M02 A3026 RMK A01 T10041015  RH  093%=      5-min Rain = 0
KSVS 072225Z 01003KT M00/M01 A3026 RMK A01 T10041014  RH  093%=      5-min Rain = 0
KSVS 072230Z 01004KT M00/M01 A3026 RMK A01 T10041014  RH  094%=      5-min Rain = 0
KSVS 072235Z 36003KT M00/M01 A3026 RMK A01 T10031014  RH  094%=      5-min Rain = 0
KSVS 072240Z 01003KT M00/M01 A3026 RMK A01 T10031013  RH  094%=      5-min Rain = 0
KSVS 072245Z 03004KT M00/M01 A3025 RMK A01 T10031013  RH  094%=      5-min Rain = 0
KSVS 072250Z 03004KT M00/M01 A3025 RMK A01 T10031013  RH  094%=      5-min Rain = 0
KSVS 072255Z 03004KT M00/M01 A3025 RMK A01 T10031012  RH  094%=      5-min Rain = 0
KSVS 072300Z 02004KT M00/M01 A3026 RMK A01 T10021012  RH  094%=      5-min Rain = 0
KSVS 072305Z 02004KT M00/M01 A3026 RMK A01 T10031013  RH  094%=      5-min Rain = 0
KSVS 072310Z 03004KT M00/M01 A3026 RMK A01 T10031013  RH  094%=      5-min Rain = 0
KSVS 072315Z 03004KT M00/M01 A3026 RMK A01 T10041013  RH  094%=      5-min Rain = 0
KSVS 072320Z 03004KT M00/M01 A3026 RMK A01 T10031013  RH  094%=      5-min Rain = 0
KSVS 072325Z 03004KT M00/M01 A3027 RMK A01 T10031013  RH  094%=      5-min Rain = 0
KSVS 072330Z 04004KT M00/M01 A3027 RMK A01 T10031013  RH  094%=      5-min Rain = 0
KSVS 072335Z 04003KT M00/M01 A3027 RMK A01 T10031012  RH  094%=      5-min Rain = 0
KSVS 072340Z 04003KT M00/M01 A3028 RMK A01 T10031013  RH  094%=      5-min Rain = 0
KSVS 072345Z 04003KT M00/M01 A3027 RMK A01 T10031012  RH  094%=      5-min Rain = 0
KSVS 072350Z 04003KT M00/M01 A3027 RMK A01 T10031012  RH  094%=      5-min Rain = 0
KSVS 072355Z 04003KT M00/M01 A3028 RMK A01 T10031012  RH  094%=      5-min Rain = 0
KSVS 080000Z 04004KT M00/M01 A3027 RMK A01 T10031012  RH  095%=      5-min Rain = 0
KSVS 080005Z 04004KT M00/M01 A3027 RMK A01 T10031012  RH  095%=      5-min Rain = 0
KSVS 080010Z 04004KT M00/M01 A3027 RMK A01 T10031012  RH  095%=      5-min Rain = 0
KSVS 080015Z 04004KT M00/M01 A3027 RMK A01 T10031012  RH  095%=      5-min Rain = 0
KSVS 080020Z 05004KT M00/M01 A3027 RMK A01 T10031012  RH  095%=      5-min Rain = 0
KSVS 080025Z 04004KT M00/M01 A3027 RMK A01 T10031012  RH  095%=      5-min Rain = 0
KSVS 080030Z 04004KT M00/M01 A3027 RMK A01 T10031011  RH  095%=      5-min Rain = 0
KSVS 080035Z 04004KT M00/M01 A3027 RMK A01 T10031012  RH  095%=      5-min Rain = 0
KSVS 080040Z 04004KT M00/M01 A3026 RMK A01 T10031011  RH  095%=      5-min Rain = 0
KSVS 080045Z 04005KT M00/M01 A3026 RMK A01 T10041012  RH  095%=      5-min Rain = 0
KSVS 080050Z 04005KT M00/M01 A3027 RMK A01 T10041012  RH  095%=      5-min Rain = 0
KSVS 080055Z 04005KT M00/M01 A3026 RMK A01 T10041012  RH  095%=      5-min Rain = 0
KSVS 080100Z 05005KT M00/M01 A3026 RMK A01 T10041012  RH  095%=      5-min Rain = 0
KSVS 080105Z 05005KT M00/M01 A3026 RMK A01 T10041013  RH  095%=      5-min Rain = 0
KSVS 080110Z 05004KT M00/M01 A3026 RMK A01 T10041013  RH  095%=      5-min Rain = 0
KSVS 080115Z 05004KT M00/M01 A3027 RMK A01 T10031013  RH  094%=      5-min Rain = 0
KSVS 080120Z 05005KT M00/M01 A3028 RMK A01 T10041013  RH  094%=      5-min Rain = 0
KSVS 080125Z 05004KT M00/M01 A3028 RMK A01 T10041013  RH  094%=      5-min Rain = 0
KSVS 080130Z 05004KT M00/M01 A3028 RMK A01 T10031013  RH  094%=      5-min Rain = 0
KSVS 080135Z 06005KT M00/M01 A3028 RMK A01 T10031013  RH  094%=      5-min Rain = 0
KSVS 080140Z 06005KT M00/M01 A3028 RMK A01 T10031012  RH  095%=      5-min Rain = 0
KSVS 080145Z 06005KT M00/M01 A3029 RMK A01 T10031012  RH  095%=      5-min Rain = 0
KSVS 080150Z 05005KT M00/M01 A3029 RMK A01 T10031012  RH  095%=      5-min Rain = 0
KSVS 080155Z 06005KT M00/M01 A3029 RMK A01 T10041013  RH  094%=      5-min Rain = 0
KSVS 080200Z 06005KT M00/M01 A3029 RMK A01 T10041014  RH  094%=      5-min Rain = 0
KSVS 080205Z 06005KT M00/M01 A3029 RMK A01 T10041014  RH  094%=      5-min Rain = 0
KSVS 080210Z 06005KT M00/M01 A3029 RMK A01 T10041014  RH  094%=      5-min Rain = 0
KSVS 080215Z 06005KT M00/M01 A3029 RMK A01 T10041014  RH  094%=      5-min Rain = 0
KSVS 080220Z 06005KT M00/M01 A3029 RMK A01 T10041014  RH  094%=      5-min Rain = 0
KSVS 080225Z 06005KT M01/M02 A3029 RMK A01 T10061015  RH  094%=      5-min Rain = 0
KSVS 080230Z 06005KT M01/M02 A3029 RMK A01 T10061016  RH  094%=      5-min Rain = 0
KSVS 080235Z 06004KT M01/M02 A303 RMK A01 T10061016  RH  094%=      5-min Rain = 0
KSVS 080240Z 06005KT M01/M02 A303 RMK A01 T10061017  RH  093%=      5-min Rain = 0
KSVS 080245Z 05004KT M01/M02 A3031 RMK A01 T10061017  RH  093%=      5-min Rain = 0
KSVS 080250Z 05004KT M01/M02 A3031 RMK A01 T10061017  RH  093%=      5-min Rain = 0
KSVS 080255Z 05005KT M01/M02 A3031 RMK A01 T10061018  RH  093%=      5-min Rain = 0
KSVS 080300Z 05004KT M01/M02 A3031 RMK A01 T10061018  RH  093%=      5-min Rain = 0
KSVS 080305Z 05005KT M01/M02 A3031 RMK A01 T10071018  RH  093%=      5-min Rain = 0
KSVS 080310Z 05005KT M01/M02 A3031 RMK A01 T10071018  RH  093%=      5-min Rain = 0
KSVS 080315Z 04004KT M01/M02 A3031 RMK A01 T10071018  RH  093%=      5-min Rain = 0
KSVS 080320Z 04004KT M01/M02 A3031 RMK A01 T10071019  RH  093%=      5-min Rain = 0
KSVS 080325Z 04005KT M01/M02 A3032 RMK A01 T10071019  RH  092%=      5-min Rain = 0
KSVS 080330Z 04004KT M01/M02 A3031 RMK A01 T10071019  RH  092%=      5-min Rain = 0
KSVS 080335Z 04005KT M01/M02 A303 RMK A01 T10071020  RH  092%=      5-min Rain = 0
KSVS 080340Z 04006KT M01/M02 A303 RMK A01 T10071021  RH  091%=      5-min Rain = 0
KSVS 080345Z 04005KT M01/M02 A303 RMK A01 T10071021  RH  091%=      5-min Rain = 0
KSVS 080350Z 04006KT M01/M02 A303 RMK A01 T10071021  RH  091%=      5-min Rain = 0
KSVS 080355Z 05006KT M01/M02 A303 RMK A01 T10071021  RH  092%=      5-min Rain = 0
KSVS 080400Z 04006KT M01/M02 A303 RMK A01 T10081021  RH  091%=      5-min Rain = 0
KSVS 080405Z 04006KT M01/M02 A303 RMK A01 T10081021  RH  091%=      5-min Rain = 0
KSVS 080410Z 04006KT M01/M02 A303 RMK A01 T10081021  RH  092%=      5-min Rain = 0
KSVS 080415Z 04006KT M01/M02 A303 RMK A01 T10081022  RH  091%=      5-min Rain = 0
KSVS 080420Z 04006KT M01/M02 A303 RMK A01 T10091022  RH  091%=      5-min Rain = 0
KSVS 080425Z 04006KT M01/M02 A3029 RMK A01 T10091022  RH  092%=      5-min Rain = 0
KSVS 080430Z 04007KT M01/M02 A3029 RMK A01 T10101022  RH  092%=      5-min Rain = 0
KSVS 080435Z 04006KT M01/M02 A303 RMK A01 T10101022  RH  092%=      5-min Rain = 0
KSVS 080440Z 05005KT M01/M02 A303 RMK A01 T10091022  RH  092%=      5-min Rain = 0
KSVS 080445Z 05006KT M01/M02 A303 RMK A01 T10101021  RH  093%=      5-min Rain = 0
KSVS 080450Z 04006KT M01/M02 A303 RMK A01 T10101021  RH  093%=      5-min Rain = 0
KSVS 080455Z 04007KT M01/M02 A303 RMK A01 T10111021  RH  093%=      5-min Rain = 0
KSVS 080500Z 04006KT M01/M02 A3029 RMK A01 T10101020  RH  094%=      5-min Rain = 0
KSVS 080505Z 04006KT M01/M02 A3029 RMK A01 T10101020  RH  094%=      5-min Rain = 0
KSVS 080510Z 04007KT M01/M02 A303 RMK A01 T10111020  RH  094%=      5-min Rain = 0
KSVS 080515Z 04007KT M01/M02 A3029 RMK A01 T10111020  RH  094%=      5-min Rain = 0
KSVS 080520Z 04007KT M01/M02 A303 RMK A01 T10111020  RH  095%=      5-min Rain = 0
KSVS 080525Z 04005KT M01/M02 A3031 RMK A01 T10101018  RH  095%=      5-min Rain = 0
KSVS 080530Z 04005KT M01/M02 A3031 RMK A01 T10101018  RH  095%=      5-min Rain = 0
KSVS 080535Z 04005KT M01/M02 A3032 RMK A01 T10091017  RH  095%=      5-min Rain = 0
KSVS 080540Z 04005KT M01/M02 A3032 RMK A01 T10091016  RH  096%=      5-min Rain = 0
KSVS 080545Z 04004KT M01/M02 A3031 RMK A01 T10091016  RH  096%=      5-min Rain = 0
KSVS 080550Z 04004KT M01/M02 A3032 RMK A01 T10081015  RH  096%=      5-min Rain = 0
KSVS 080555Z 03004KT M01/M02 A3032 RMK A01 T10081015  RH  096%=      5-min Rain = 0

Page generated in 0.0092 seconds.